sensor_id;sensor_type;location;lat;lon;timestamp;P1;durP1;ratioP1;P2;durP2;ratioP2
54545;SDS011;40444;45.184;9.850;2023-04-25T00:00:27;1.60;;;1.20;;
54545;SDS011;40444;45.184;9.850;2023-04-25T00:02:55;1.80;;;1.25;;
54545;SDS011;40444;45.184;9.850;2023-04-25T00:05:25;2.22;;;1.30;;
54545;SDS011;40444;45.184;9.850;2023-04-25T00:07:57;1.58;;;1.27;;
54545;SDS011;40444;45.184;9.850;2023-04-25T00:10:30;1.80;;;1.40;;
54545;SDS011;40444;45.184;9.850;2023-04-25T00:12:59;1.83;;;1.30;;
54545;SDS011;40444;45.184;9.850;2023-04-25T00:15:30;2.70;;;1.40;;
54545;SDS011;40444;45.184;9.850;2023-04-25T00:17:58;2.00;;;1.55;;
54545;SDS011;40444;45.184;9.850;2023-04-25T00:20:26;3.05;;;1.30;;
54545;SDS011;40444;45.184;9.850;2023-04-25T00:22:54;2.05;;;1.42;;
54545;SDS011;40444;45.184;9.850;2023-04-25T00:25:23;2.38;;;1.05;;
54545;SDS011;40444;45.184;9.850;2023-04-25T00:27:51;4.07;;;1.48;;
54545;SDS011;40444;45.184;9.850;2023-04-25T00:30:19;2.30;;;1.45;;
54545;SDS011;40444;45.184;9.850;2023-04-25T00:32:47;1.35;;;0.98;;
54545;SDS011;40444;45.184;9.850;2023-04-25T00:35:16;3.22;;;1.52;;
54545;SDS011;40444;45.184;9.850;2023-04-25T00:37:45;3.33;;;1.40;;
54545;SDS011;40444;45.184;9.850;2023-04-25T00:40:13;2.47;;;1.50;;
54545;SDS011;40444;45.184;9.850;2023-04-25T00:42:42;2.65;;;1.50;;
54545;SDS011;40444;45.184;9.850;2023-04-25T00:45:12;2.85;;;1.58;;
54545;SDS011;40444;45.184;9.850;2023-04-25T00:47:42;2.60;;;1.25;;
54545;SDS011;40444;45.184;9.850;2023-04-25T00:50:11;1.85;;;1.27;;
54545;SDS011;40444;45.184;9.850;2023-04-25T00:52:40;2.33;;;1.40;;
54545;SDS011;40444;45.184;9.850;2023-04-25T00:55:11;2.30;;;1.30;;
54545;SDS011;40444;45.184;9.850;2023-04-25T00:57:40;1.58;;;1.13;;
54545;SDS011;40444;45.184;9.850;2023-04-25T01:00:09;2.78;;;1.65;;
54545;SDS011;40444;45.184;9.850;2023-04-25T01:02:38;2.03;;;1.40;;
54545;SDS011;40444;45.184;9.850;2023-04-25T01:05:08;3.22;;;1.38;;
54545;SDS011;40444;45.184;9.850;2023-04-25T01:07:36;3.22;;;1.77;;
54545;SDS011;40444;45.184;9.850;2023-04-25T01:10:05;1.27;;;1.08;;
54545;SDS011;40444;45.184;9.850;2023-04-25T01:12:34;1.90;;;1.60;;
54545;SDS011;40444;45.184;9.850;2023-04-25T01:15:03;2.28;;;1.48;;
54545;SDS011;40444;45.184;9.850;2023-04-25T01:17:31;2.45;;;1.50;;
54545;SDS011;40444;45.184;9.850;2023-04-25T01:20:03;1.70;;;1.33;;
54545;SDS011;40444;45.184;9.850;2023-04-25T01:22:33;1.98;;;1.30;;
54545;SDS011;40444;45.184;9.850;2023-04-25T01:25:02;1.85;;;1.30;;
54545;SDS011;40444;45.184;9.850;2023-04-25T01:27:31;2.53;;;1.50;;
54545;SDS011;40444;45.184;9.850;2023-04-25T01:30:00;3.25;;;1.30;;
54545;SDS011;40444;45.184;9.850;2023-04-25T01:32:30;3.17;;;1.52;;
54545;SDS011;40444;45.184;9.850;2023-04-25T01:35:07;1.83;;;1.13;;
54545;SDS011;40444;45.184;9.850;2023-04-25T01:37:40;3.08;;;1.45;;
54545;SDS011;40444;45.184;9.850;2023-04-25T01:40:12;2.47;;;1.90;;
54545;SDS011;40444;45.184;9.850;2023-04-25T01:42:41;1.88;;;1.38;;
54545;SDS011;40444;45.184;9.850;2023-04-25T01:45:11;3.00;;;1.92;;
54545;SDS011;40444;45.184;9.850;2023-04-25T01:47:40;2.25;;;1.70;;
54545;SDS011;40444;45.184;9.850;2023-04-25T01:50:10;2.22;;;1.30;;
54545;SDS011;40444;45.184;9.850;2023-04-25T01:52:38;2.05;;;1.30;;
54545;SDS011;40444;45.184;9.850;2023-04-25T01:55:08;3.25;;;1.70;;
54545;SDS011;40444;45.184;9.850;2023-04-25T01:57:40;1.88;;;1.50;;
54545;SDS011;40444;45.184;9.850;2023-04-25T02:00:09;2.25;;;1.60;;
54545;SDS011;40444;45.184;9.850;2023-04-25T02:02:43;2.25;;;1.58;;
54545;SDS011;40444;45.184;9.850;2023-04-25T02:05:25;7.35;;;1.58;;
54545;SDS011;40444;45.184;9.850;2023-04-25T02:07:53;2.10;;;1.70;;
54545;SDS011;40444;45.184;9.850;2023-04-25T02:10:29;2.25;;;1.70;;
54545;SDS011;40444;45.184;9.850;2023-04-25T02:13:08;3.10;;;1.85;;
54545;SDS011;40444;45.184;9.850;2023-04-25T02:15:55;2.25;;;1.73;;
54545;SDS011;40444;45.184;9.850;2023-04-25T02:18:24;2.40;;;1.80;;
54545;SDS011;40444;45.184;9.850;2023-04-25T02:20:53;3.03;;;2.40;;
54545;SDS011;40444;45.184;9.850;2023-04-25T02:23:22;2.70;;;2.17;;
54545;SDS011;40444;45.184;9.850;2023-04-25T02:25:50;4.18;;;2.10;;
54545;SDS011;40444;45.184;9.850;2023-04-25T02:28:20;4.03;;;2.33;;
54545;SDS011;40444;45.184;9.850;2023-04-25T02:30:49;3.20;;;2.20;;
54545;SDS011;40444;45.184;9.850;2023-04-25T02:33:17;3.90;;;2.70;;
54545;SDS011;40444;45.184;9.850;2023-04-25T02:35:45;3.08;;;2.42;;
54545;SDS011;40444;45.184;9.850;2023-04-25T02:38:14;3.58;;;2.10;;
54545;SDS011;40444;45.184;9.850;2023-04-25T02:40:42;4.40;;;2.20;;
54545;SDS011;40444;45.184;9.850;2023-04-25T02:43:10;4.10;;;2.10;;
54545;SDS011;40444;45.184;9.850;2023-04-25T02:45:39;4.00;;;2.30;;
54545;SDS011;40444;45.184;9.850;2023-04-25T02:48:07;4.25;;;2.08;;
54545;SDS011;40444;45.184;9.850;2023-04-25T02:50:35;2.78;;;2.13;;
54545;SDS011;40444;45.184;9.850;2023-04-25T02:53:04;2.63;;;1.85;;
54545;SDS011;40444;45.184;9.850;2023-04-25T02:55:37;3.05;;;2.00;;
54545;SDS011;40444;45.184;9.850;2023-04-25T02:58:05;3.53;;;1.90;;
54545;SDS011;40444;45.184;9.850;2023-04-25T03:00:43;4.18;;;2.00;;
54545;SDS011;40444;45.184;9.850;2023-04-25T03:03:12;4.65;;;1.90;;
54545;SDS011;40444;45.184;9.850;2023-04-25T03:05:41;2.40;;;1.90;;
54545;SDS011;40444;45.184;9.850;2023-04-25T03:08:09;2.85;;;1.80;;
54545;SDS011;40444;45.184;9.850;2023-04-25T03:10:38;2.72;;;1.80;;
54545;SDS011;40444;45.184;9.850;2023-04-25T03:13:09;3.38;;;1.80;;
54545;SDS011;40444;45.184;9.850;2023-04-25T03:15:38;3.47;;;2.25;;
54545;SDS011;40444;45.184;9.850;2023-04-25T03:18:07;2.90;;;2.10;;
54545;SDS011;40444;45.184;9.850;2023-04-25T03:20:35;3.42;;;2.08;;
54545;SDS011;40444;45.184;9.850;2023-04-25T03:23:03;2.90;;;2.10;;
54545;SDS011;40444;45.184;9.850;2023-04-25T03:25:32;3.20;;;1.80;;
54545;SDS011;40444;45.184;9.850;2023-04-25T03:28:00;4.20;;;2.28;;
54545;SDS011;40444;45.184;9.850;2023-04-25T03:30:28;3.85;;;2.33;;
54545;SDS011;40444;45.184;9.850;2023-04-25T03:32:58;8.10;;;2.60;;
54545;SDS011;40444;45.184;9.850;2023-04-25T03:35:27;4.78;;;2.33;;
54545;SDS011;40444;45.184;9.850;2023-04-25T03:37:55;3.38;;;2.38;;
54545;SDS011;40444;45.184;9.850;2023-04-25T03:40:28;3.72;;;2.47;;
54545;SDS011;40444;45.184;9.850;2023-04-25T03:43:22;3.20;;;2.53;;
54545;SDS011;40444;45.184;9.850;2023-04-25T03:45:57;6.70;;;2.83;;
54545;SDS011;40444;45.184;9.850;2023-04-25T03:48:25;4.13;;;2.58;;
54545;SDS011;40444;45.184;9.850;2023-04-25T03:50:54;4.07;;;2.47;;
54545;SDS011;40444;45.184;9.850;2023-04-25T03:53:22;3.85;;;2.40;;
54545;SDS011;40444;45.184;9.850;2023-04-25T03:56:09;3.42;;;2.60;;
54545;SDS011;40444;45.184;9.850;2023-04-25T03:58:39;3.05;;;2.17;;
54545;SDS011;40444;45.184;9.850;2023-04-25T04:01:08;3.50;;;2.42;;
54545;SDS011;40444;45.184;9.850;2023-04-25T04:03:39;4.47;;;2.28;;
54545;SDS011;40444;45.184;9.850;2023-04-25T04:06:09;3.03;;;2.08;;
54545;SDS011;40444;45.184;9.850;2023-04-25T04:08:43;3.40;;;2.35;;
54545;SDS011;40444;45.184;9.850;2023-04-25T04:11:12;2.35;;;1.80;;
54545;SDS011;40444;45.184;9.850;2023-04-25T04:13:41;3.75;;;2.28;;
54545;SDS011;40444;45.184;9.850;2023-04-25T04:16:10;2.70;;;1.88;;
54545;SDS011;40444;45.184;9.850;2023-04-25T04:18:39;3.25;;;1.90;;
54545;SDS011;40444;45.184;9.850;2023-04-25T04:21:07;3.53;;;1.92;;
54545;SDS011;40444;45.184;9.850;2023-04-25T04:23:39;3.78;;;1.98;;
54545;SDS011;40444;45.184;9.850;2023-04-25T04:26:09;2.40;;;1.90;;
54545;SDS011;40444;45.184;9.850;2023-04-25T04:28:51;3.72;;;2.40;;
54545;SDS011;40444;45.184;9.850;2023-04-25T04:31:35;3.05;;;2.45;;
54545;SDS011;40444;45.184;9.850;2023-04-25T04:34:03;3.13;;;2.15;;
54545;SDS011;40444;45.184;9.850;2023-04-25T04:36:33;2.55;;;2.10;;
54545;SDS011;40444;45.184;9.850;2023-04-25T04:39:02;3.83;;;2.13;;
54545;SDS011;40444;45.184;9.850;2023-04-25T04:41:38;3.53;;;2.60;;
54545;SDS011;40444;45.184;9.850;2023-04-25T04:44:29;3.03;;;2.38;;
